sensor_id;sensor_type;location;lat;lon;timestamp;temperature;humidity
52513;DHT22;38422;53.172;6.974;2023-09-18T00:14:18;19.10;99.90
52513;DHT22;38422;53.172;6.974;2023-09-18T00:16:44;19.10;99.90
52513;DHT22;38422;53.172;6.974;2023-09-18T00:19:09;19.10;99.90
52513;DHT22;38422;53.172;6.974;2023-09-18T00:21:36;19.10;99.90
52513;DHT22;38422;53.172;6.974;2023-09-18T00:24:02;19.00;99.90
52513;DHT22;38422;53.172;6.974;2023-09-18T00:26:28;19.00;99.90
52513;DHT22;38422;53.172;6.974;2023-09-18T00:28:54;19.00;99.90
52513;DHT22;38422;53.172;6.974;2023-09-18T00:31:20;19.00;99.90
52513;DHT22;38422;53.172;6.974;2023-09-18T00:33:45;18.90;99.90
52513;DHT22;38422;53.172;6.974;2023-09-18T00:36:11;18.90;99.90
52513;DHT22;38422;53.172;6.974;2023-09-18T00:38:37;18.90;99.90
52513;DHT22;38422;53.172;6.974;2023-09-18T00:41:03;18.80;99.90
52513;DHT22;38422;53.172;6.974;2023-09-18T00:47:10;18.80;99.90
52513;DHT22;38422;53.172;6.974;2023-09-18T00:49:39;18.80;99.90
52513;DHT22;38422;53.172;6.974;2023-09-18T00:52:06;18.80;99.90
52513;DHT22;38422;53.172;6.974;2023-09-18T00:54:34;18.80;99.90
52513;DHT22;38422;53.172;6.974;2023-09-18T00:57:00;18.80;99.90
52513;DHT22;38422;53.172;6.974;2023-09-18T00:59:26;18.80;99.90
52513;DHT22;38422;53.172;6.974;2023-09-18T01:01:52;18.80;99.90
52513;DHT22;38422;53.172;6.974;2023-09-18T01:04:19;18.80;99.90
52513;DHT22;38422;53.172;6.974;2023-09-18T01:06:45;18.80;99.90
52513;DHT22;38422;53.172;6.974;2023-09-18T01:09:11;18.80;99.90
52513;DHT22;38422;53.172;6.974;2023-09-18T01:14:33;18.90;99.90
52513;DHT22;38422;53.172;6.974;2023-09-18T01:17:02;18.90;99.90
52513;DHT22;38422;53.172;6.974;2023-09-18T01:19:38;18.80;99.90
52513;DHT22;38422;53.172;6.974;2023-09-18T01:22:05;18.90;99.90
52513;DHT22;38422;53.172;6.974;2023-09-18T01:24:36;18.80;99.90
52513;DHT22;38422;53.172;6.974;2023-09-18T01:27:03;18.90;99.90
52513;DHT22;38422;53.172;6.974;2023-09-18T01:29:32;18.90;99.90
52513;DHT22;38422;53.172;6.974;2023-09-18T01:31:57;18.80;99.90
52513;DHT22;38422;53.172;6.974;2023-09-18T01:34:37;18.80;99.90
52513;DHT22;38422;53.172;6.974;2023-09-18T01:37:05;18.80;99.90
52513;DHT22;38422;53.172;6.974;2023-09-18T01:39:35;18.80;99.90
52513;DHT22;38422;53.172;6.974;2023-09-18T01:42:03;18.80;99.90
52513;DHT22;38422;53.172;6.974;2023-09-18T01:44:32;18.80;99.90
52513;DHT22;38422;53.172;6.974;2023-09-18T01:47:00;18.80;99.90
52513;DHT22;38422;53.172;6.974;2023-09-18T01:49:37;18.80;99.90
52513;DHT22;38422;53.172;6.974;2023-09-18T01:52:04;18.80;99.90
52513;DHT22;38422;53.172;6.974;2023-09-18T01:54:30;18.80;99.90
52513;DHT22;38422;53.172;6.974;2023-09-18T01:56:56;18.80;99.90
52513;DHT22;38422;53.172;6.974;2023-09-18T01:59:22;18.80;99.90
52513;DHT22;38422;53.172;6.974;2023-09-18T02:01:49;18.80;99.90
52513;DHT22;38422;53.172;6.974;2023-09-18T02:04:15;18.80;99.90
52513;DHT22;38422;53.172;6.974;2023-09-18T02:06:41;18.80;99.90
52513;DHT22;38422;53.172;6.974;2023-09-18T02:09:07;18.80;99.90
52513;DHT22;38422;53.172;6.974;2023-09-18T02:11:40;18.80;99.90
52513;DHT22;38422;53.172;6.974;2023-09-18T02:14:07;18.80;99.90
52513;DHT22;38422;53.172;6.974;2023-09-18T02:16:34;18.80;99.90
52513;DHT22;38422;53.172;6.974;2023-09-18T02:19:00;18.80;99.90
52513;DHT22;38422;53.172;6.974;2023-09-18T02:21:25;18.80;99.90
52513;DHT22;38422;53.172;6.974;2023-09-18T02:23:52;18.80;99.90
52513;DHT22;38422;53.172;6.974;2023-09-18T02:26:19;18.80;99.90
52513;DHT22;38422;53.172;6.974;2023-09-18T02:28:45;18.80;99.90
52513;DHT22;38422;53.172;6.974;2023-09-18T02:31:11;18.80;99.90
52513;DHT22;38422;53.172;6.974;2023-09-18T02:33:37;18.80;99.90
52513;DHT22;38422;53.172;6.974;2023-09-18T02:36:03;18.80;99.90
52513;DHT22;38422;53.172;6.974;2023-09-18T02:38:29;18.80;99.90
52513;DHT22;38422;53.172;6.974;2023-09-18T02:40:57;18.80;99.90
52513;DHT22;38422;53.172;6.974;2023-09-18T02:43:23;18.80;99.90
52513;DHT22;38422;53.172;6.974;2023-09-18T02:45:50;18.80;99.90
52513;DHT22;38422;53.172;6.974;2023-09-18T02:48:16;18.80;99.90
52513;DHT22;38422;53.172;6.974;2023-09-18T02:50:42;18.80;99.90
52513;DHT22;38422;53.172;6.974;2023-09-18T02:53:16;18.80;99.90
52513;DHT22;38422;53.172;6.974;2023-09-18T02:55:42;18.80;99.90
52513;DHT22;38422;53.172;6.974;2023-09-18T02:58:09;18.80;99.90
52513;DHT22;38422;53.172;6.974;2023-09-18T03:00:41;18.80;99.90
52513;DHT22;38422;53.172;6.974;2023-09-18T03:03:08;18.80;99.90
52513;DHT22;38422;53.172;6.974;2023-09-18T03:05:34;18.80;99.90
52513;DHT22;38422;53.172;6.974;2023-09-18T03:08:00;18.80;99.90
52513;DHT22;38422;53.172;6.974;2023-09-18T03:10:25;18.80;99.90
52513;DHT22;38422;53.172;6.974;2023-09-18T03:12:51;18.90;99.90
52513;DHT22;38422;53.172;6.974;2023-09-18T03:15:17;18.90;99.90
52513;DHT22;38422;53.172;6.974;2023-09-18T03:17:43;18.90;99.90
52513;DHT22;38422;53.172;6.974;2023-09-18T03:20:09;18.90;99.90
52513;DHT22;38422;53.172;6.974;2023-09-18T03:22:35;18.90;99.90
52513;DHT22;38422;53.172;6.974;2023-09-18T03:25:00;18.90;99.90
52513;DHT22;38422;53.172;6.974;2023-09-18T03:27:26;18.80;99.90
52513;DHT22;38422;53.172;6.974;2023-09-18T03:29:58;18.80;99.90
52513;DHT22;38422;53.172;6.974;2023-09-18T03:32:23;18.80;99.90
52513;DHT22;38422;53.172;6.974;2023-09-18T03:34:53;18.80;99.90
52513;DHT22;38422;53.172;6.974;2023-09-18T03:37:19;18.80;99.90
52513;DHT22;38422;53.172;6.974;2023-09-18T03:39:44;18.80;99.90
52513;DHT22;38422;53.172;6.974;2023-09-18T03:42:10;18.80;99.90
52513;DHT22;38422;53.172;6.974;2023-09-18T03:44:37;18.70;99.90
52513;DHT22;38422;53.172;6.974;2023-09-18T03:47:02;18.80;99.90
52513;DHT22;38422;53.172;6.974;2023-09-18T03:49:29;18.70;99.90
52513;DHT22;38422;53.172;6.974;2023-09-18T03:51:55;18.70;99.90
52513;DHT22;38422;53.172;6.974;2023-09-18T03:54:21;18.70;99.90
52513;DHT22;38422;53.172;6.974;2023-09-18T03:56:46;18.70;99.90
52513;DHT22;38422;53.172;6.974;2023-09-18T03:59:12;18.70;99.90
52513;DHT22;38422;53.172;6.974;2023-09-18T04:01:39;18.70;99.90
52513;DHT22;38422;53.172;6.974;2023-09-18T04:04:05;18.70;99.90
52513;DHT22;38422;53.172;6.974;2023-09-18T04:06:42;18.60;99.90
52513;DHT22;38422;53.172;6.974;2023-09-18T04:09:08;18.70;99.90
52513;DHT22;38422;53.172;6.974;2023-09-18T04:11:34;18.70;99.90
52513;DHT22;38422;53.172;6.974;2023-09-18T04:14:00;18.60;99.90
52513;DHT22;38422;53.172;6.974;2023-09-18T04:16:26;18.70;99.90
52513;DHT22;38422;53.172;6.974;2023-09-18T04:19:02;18.70;99.90
52513;DHT22;38422;53.172;6.974;2023-09-18T04:21:28;18.70;99.90
52513;DHT22;38422;53.172;6.974;2023-09-18T04:23:57;18.70;99.90
52513;DHT22;38422;53.172;6.974;2023-09-18T04:26:27;18.70;99.90
52513;DHT22;38422;53.172;6.974;2023-09-18T04:29:02;18.70;99.90
52513;DHT22;38422;53.172;6.974;2023-09-18T04:31:28;18.70;99.90
52513;DHT22;38422;53.172;6.974;2023-09-18T04:33:55;18.70;99.90
52513;DHT22;38422;53.172;6.974;2023-09-18T04:36:21;18.60;99.90
52513;DHT22;38422;53.172;6.974;2023-09-18T04:38:46;18.60;99.90
52513;DHT22;38422;53.172;6.974;2023-09-18T04:41:13;18.60;99.90
52513;DHT22;38422;53.172;6.974;2023-09-18T04:43:40;18.60;99.90
52513;DHT22;38422;53.172;6.974;2023-09-18T04:46:06;18.60;99.90
52513;DHT22;38422;53.172;6.974;2023-09-18T04:48:32;18.60;99.90
52513;DHT22;38422;53.172;6.974;2023-09-18T04:50:58;18.60;99.90
52513;DHT22;38422;53.172;6.974;2023-09-18T04:53:25;18.60;99.90
52513;DHT22;38422;53.172;6.974;2023-09-18T04:55:50;18.60;99.90
52513;DHT22;38422;53.172;6.974;2023-09-18T04:58:17;18.60;99.90
52513;DHT22;38422;53.172;6.974;2023-09-18T05:00:43;18.60;99.90
52513;DHT22;38422;53.172;6.974;2023-09-18T05:03:09;18.60;99.90
52513;DHT22;38422;53.172;6.974;2023-09-18T05:05:35;18.60;99.90
52513;DHT22;38422;53.172;6.974;2023-09-18T05:08:06;18.70;99.90
52513;DHT22;38422;53.172;6.974;2023-09-18T05:10:35;18.70;99.90
52513;DHT22;38422;53.172;6.974;2023-09-18T05:13:01;18.70;99.90
52513;DHT22;38422;53.172;6.974;2023-09-18T05:15:27;18.70;99.90
52513;DHT22;38422;53.172;6.974;2023-09-18T05:17:55;18.70;99.90
52513;DHT22;38422;53.172;6.974;2023-09-18T05:20:27;18.70;99.90
52513;DHT22;38422;53.172;6.974;2023-09-18T05:22:54;18.70;99.90
52513;DHT22;38422;53.172;6.974;2023-09-18T05:25:21;18.70;99.90
52513;DHT22;38422;53.172;6.974;2023-09-18T05:27:51;18.70;99.90
52513;DHT22;38422;53.172;6.974;2023-09-18T05:30:31;18.80;99.90
52513;DHT22;38422;53.172;6.974;2023-09-18T05:32:59;18.80;99.90
52513;DHT22;38422;53.172;6.974;2023-09-18T05:35:51;18.80;99.90
52513;DHT22;38422;53.172;6.974;2023-09-18T05:38:16;18.80;99.90
52513;DHT22;38422;53.172;6.974;2023-09-18T05:40:43;18.80;99.90
52513;DHT22;38422;53.172;6.974;2023-09-18T05:43:10;18.80;99.90
52513;DHT22;38422;53.172;6.974;2023-09-18T05:45:37;18.80;99.90
52513;DHT22;38422;53.172;6.974;2023-09-18T05:48:03;18.80;99.90
52513;DHT22;38422;53.172;6.974;2023-09-18T05:50:31;18.80;99.90
52513;DHT22;38422;53.172;6.974;2023-09-18T05:52:58;18.80;99.90
52513;DHT22;38422;53.172;6.974;2023-09-18T05:55:30;18.80;99.90
52513;DHT22;38422;53.172;6.974;2023-09-18T05:57:56;18.80;99.90
52513;DHT22;38422;53.172;6.974;2023-09-18T06:00:24;18.80;99.90
52513;DHT22;38422;53.172;6.974;2023-09-18T06:02:50;18.80;99.90
52513;DHT22;38422;53.172;6.974;2023-09-18T06:05:19;18.80;99.90
52513;DHT22;38422;53.172;6.974;2023-09-18T06:07:48;18.90;99.90
52513;DHT22;38422;53.172;6.974;2023-09-18T06:10:14;18.90;99.90
52513;DHT22;38422;53.172;6.974;2023-09-18T06:12:40;18.90;99.90
52513;DHT22;38422;53.172;6.974;2023-09-18T06:15:07;18.90;99.90
52513;DHT22;38422;53.172;6.974;2023-09-18T06:17:41;18.90;99.90
52513;DHT22;38422;53.172;6.974;2023-09-18T06:20:08;18.90;99.90
52513;DHT22;38422;53.172;6.974;2023-09-18T06:22:38;19.00;99.90
52513;DHT22;38422;53.172;6.974;2023-09-18T06:25:08;19.00;99.90
52513;DHT22;38422;53.172;6.974;2023-09-18T06:27:38;19.00;99.90
52513;DHT22;38422;53.172;6.974;2023-09-18T06:30:06;19.00;99.90
52513;DHT22;38422;53.172;6.974;2023-09-18T06:32:32;19.00;99.90
52513;DHT22;38422;53.172;6.974;2023-09-18T06:34:59;19.00;99.90
52513;DHT22;38422;53.172;6.974;2023-09-18T06:37:25;19.00;99.90
52513;DHT22;38422;53.172;6.974;2023-09-18T06:39:51;19.00;99.90
52513;DHT22;38422;53.172;6.974;2023-09-18T06:42:17;19.00;99.90
52513;DHT22;38422;53.172;6.974;2023-09-18T06:44:43;19.00;99.90
52513;DHT22;38422;53.172;6.974;2023-09-18T06:47:09;19.00;99.90
52513;DHT22;38422;53.172;6.974;2023-09-18T06:49:34;19.00;99.90
52513;DHT22;38422;53.172;6.974;2023-09-18T06:52:00;19.00;99.90
52513;DHT22;38422;53.172;6.974;2023-09-18T06:54:26;19.00;99.90
52513;DHT22;38422;53.172;6.974;2023-09-18T06:56:51;19.10;99.90
52513;DHT22;38422;53.172;6.974;2023-09-18T06:59:18;19.00;99.90
52513;DHT22;38422;53.172;6.974;2023-09-18T07:01:44;19.10;99.90
52513;DHT22;38422;53.172;6.974;2023-09-18T07:04:09;19.10;99.90
52513;DHT22;38422;53.172;6.974;2023-09-18T07:06:35;19.10;99.90
52513;DHT22;38422;53.172;6.974;2023-09-18T07:09:01;19.10;99.90
52513;DHT22;38422;53.172;6.974;2023-09-18T07:11:29;19.10;99.90
52513;DHT22;38422;53.172;6.974;2023-09-18T07:13:55;19.10;99.90
52513;DHT22;38422;53.172;6.974;2023-09-18T07:16:21;19.10;99.90
52513;DHT22;38422;53.172;6.974;2023-09-18T07:18:46;19.10;99.90
52513;DHT22;38422;53.172;6.974;2023-09-18T07:21:12;19.10;99.90
52513;DHT22;38422;53.172;6.974;2023-09-18T07:23:40;19.10;99.90
52513;DHT22;38422;53.172;6.974;2023-09-18T07:26:05;19.10;99.90
52513;DHT22;38422;53.172;6.974;2023-09-18T07:28:32;19.00;99.90
52513;DHT22;38422;53.172;6.974;2023-09-18T07:31:04;19.00;99.90
52513;DHT22;38422;53.172;6.974;2023-09-18T07:33:30;19.00;99.90
52513;DHT22;38422;53.172;6.974;2023-09-18T07:35:56;19.00;99.90
52513;DHT22;38422;53.172;6.974;2023-09-18T07:38:23;19.00;99.90
52513;DHT22;38422;53.172;6.974;2023-09-18T07:40:48;19.00;99.90
52513;DHT22;38422;53.172;6.974;2023-09-18T07:43:14;19.00;99.90
52513;DHT22;38422;53.172;6.974;2023-09-18T07:45:40;19.00;99.90
52513;DHT22;38422;53.172;6.974;2023-09-18T07:48:09;19.10;99.90
52513;DHT22;38422;53.172;6.974;2023-09-18T07:50:35;19.10;99.90
52513;DHT22;38422;53.172;6.974;2023-09-18T07:53:01;19.10;99.90
52513;DHT22;38422;53.172;6.974;2023-09-18T07:55:27;19.10;99.90
52513;DHT22;38422;53.172;6.974;2023-09-18T07:57:53;19.10;99.90
52513;DHT22;38422;53.172;6.974;2023-09-18T08:00:19;19.20;99.90
52513;DHT22;38422;53.172;6.974;2023-09-18T08:02:48;19.20;99.90
52513;DHT22;38422;53.172;6.974;2023-09-18T08:05:18;19.30;99.90
52513;DHT22;38422;53.172;6.974;2023-09-18T08:07:44;19.30;99.90
52513;DHT22;38422;53.172;6.974;2023-09-18T08:10:10;19.30;99.90
52513;DHT22;38422;53.172;6.974;2023-09-18T08:12:38;19.40;99.90
52513;DHT22;38422;53.172;6.974;2023-09-18T08:15:04;19.40;99.90
52513;DHT22;38422;53.172;6.974;2023-09-18T08:17:31;19.40;99.90
52513;DHT22;38422;53.172;6.974;2023-09-18T08:19:57;19.40;99.90
52513;DHT22;38422;53.172;6.974;2023-09-18T08:22:24;19.40;99.90
52513;DHT22;38422;53.172;6.974;2023-09-18T08:24:49;19.40;99.90
52513;DHT22;38422;53.172;6.974;2023-09-18T08:27:18;19.50;99.90
52513;DHT22;38422;53.172;6.974;2023-09-18T08:29:45;19.50;99.90
52513;DHT22;38422;53.172;6.974;2023-09-18T08:32:11;19.50;99.90
52513;DHT22;38422;53.172;6.974;2023-09-18T08:34:37;19.60;99.90
52513;DHT22;38422;53.172;6.974;2023-09-18T08:37:03;19.60;99.90
52513;DHT22;38422;53.172;6.974;2023-09-18T08:39:29;19.60;99.90
52513;DHT22;38422;53.172;6.974;2023-09-18T08:41:59;19.60;99.90
52513;DHT22;38422;53.172;6.974;2023-09-18T08:44:28;19.60;99.90
52513;DHT22;38422;53.172;6.974;2023-09-18T08:46:54;19.60;99.90
52513;DHT22;38422;53.172;6.974;2023-09-18T08:49:23;19.50;99.90
52513;DHT22;38422;53.172;6.974;2023-09-18T08:51:53;19.50;99.90
52513;DHT22;38422;53.172;6.974;2023-09-18T08:54:21;19.50;99.90
52513;DHT22;38422;53.172;6.974;2023-09-18T08:56:47;19.50;99.90
52513;DHT22;38422;53.172;6.974;2023-09-18T08:59:13;19.40;99.90
52513;DHT22;38422;53.172;6.974;2023-09-18T09:01:40;19.40;99.90
52513;DHT22;38422;53.172;6.974;2023-09-18T09:04:06;19.40;99.90
52513;DHT22;38422;53.172;6.974;2023-09-18T09:06:31;19.40;99.90
52513;DHT22;38422;53.172;6.974;2023-09-18T09:08:57;19.50;99.90
52513;DHT22;38422;53.172;6.974;2023-09-18T09:11:23;19.40;99.90
52513;DHT22;38422;53.172;6.974;2023-09-18T09:14:12;19.40;99.90
52513;DHT22;38422;53.172;6.974;2023-09-18T09:16:49;19.50;99.90
52513;DHT22;38422;53.172;6.974;2023-09-18T09:19:27;19.50;99.90
52513;DHT22;38422;53.172;6.974;2023-09-18T09:21:53;19.50;99.90
52513;DHT22;38422;53.172;6.974;2023-09-18T09:24:42;19.50;99.90
52513;DHT22;38422;53.172;6.974;2023-09-18T09:27:09;19.60;99.90
52513;DHT22;38422;53.172;6.974;2023-09-18T09:29:35;19.60;99.90
52513;DHT22;38422;53.172;6.974;2023-09-18T09:34:41;19.60;99.90
52513;DHT22;38422;53.172;6.974;2023-09-18T09:37:07;19.60;99.90
52513;DHT22;38422;53.172;6.974;2023-09-18T09:39:33;19.60;99.90
52513;DHT22;38422;53.172;6.974;2023-09-18T09:42:00;19.60;99.90
52513;DHT22;38422;53.172;6.974;2023-09-18T09:44:27;19.50;99.90
52513;DHT22;38422;53.172;6.974;2023-09-18T09:46:54;19.50;99.90
52513;DHT22;38422;53.172;6.974;2023-09-18T09:49:20;19.50;99.90
52513;DHT22;38422;53.172;6.974;2023-09-18T09:51:48;19.50;99.90
52513;DHT22;38422;53.172;6.974;2023-09-18T09:54:14;19.60;99.90
52513;DHT22;38422;53.172;6.974;2023-09-18T09:56:49;19.60;99.90
52513;DHT22;38422;53.172;6.974;2023-09-18T09:59:19;19.60;99.90
52513;DHT22;38422;53.172;6.974;2023-09-18T10:01:48;19.70;99.90
52513;DHT22;38422;53.172;6.974;2023-09-18T10:04:17;19.80;99.90
52513;DHT22;38422;53.172;6.974;2023-09-18T10:06:51;20.00;99.90
52513;DHT22;38422;53.172;6.974;2023-09-18T10:09:22;20.10;99.90
52513;DHT22;38422;53.172;6.974;2023-09-18T10:11:56;20.10;99.90
52513;DHT22;38422;53.172;6.974;2023-09-18T10:14:32;20.20;99.90
52513;DHT22;38422;53.172;6.974;2023-09-18T10:17:09;20.20;99.90
52513;DHT22;38422;53.172;6.974;2023-09-18T10:19:57;20.30;99.90
52513;DHT22;38422;53.172;6.974;2023-09-18T10:22:44;20.40;99.90
52513;DHT22;38422;53.172;6.974;2023-09-18T10:25:21;20.30;99.90
52513;DHT22;38422;53.172;6.974;2023-09-18T10:27:50;20.30;99.90
52513;DHT22;38422;53.172;6.974;2023-09-18T10:30:19;20.40;99.90
52513;DHT22;38422;53.172;6.974;2023-09-18T10:32:45;20.40;99.90
52513;DHT22;38422;53.172;6.974;2023-09-18T10:35:11;20.50;99.90
52513;DHT22;38422;53.172;6.974;2023-09-18T10:37:38;20.50;99.90
52513;DHT22;38422;53.172;6.974;2023-09-18T10:40:05;20.60;99.90
52513;DHT22;38422;53.172;6.974;2023-09-18T10:42:35;20.60;99.90
52513;DHT22;38422;53.172;6.974;2023-09-18T10:45:03;20.60;99.90
52513;DHT22;38422;53.172;6.974;2023-09-18T10:47:32;20.70;99.90
52513;DHT22;38422;53.172;6.974;2023-09-18T10:49:59;20.70;99.90
52513;DHT22;38422;53.172;6.974;2023-09-18T10:52:25;20.80;99.90
52513;DHT22;38422;53.172;6.974;2023-09-18T10:54:51;21.00;99.90
52513;DHT22;38422;53.172;6.974;2023-09-18T10:57:16;21.00;99.90
52513;DHT22;38422;53.172;6.974;2023-09-18T10:59:46;21.20;99.90
52513;DHT22;38422;53.172;6.974;2023-09-18T11:02:16;21.30;99.90
52513;DHT22;38422;53.172;6.974;2023-09-18T11:04:44;21.30;99.90
52513;DHT22;38422;53.172;6.974;2023-09-18T11:07:20;21.30;99.90
52513;DHT22;38422;53.172;6.974;2023-09-18T11:09:48;21.40;99.90
52513;DHT22;38422;53.172;6.974;2023-09-18T11:12:15;21.60;99.90
52513;DHT22;38422;53.172;6.974;2023-09-18T11:14:45;21.80;99.90
52513;DHT22;38422;53.172;6.974;2023-09-18T11:17:54;21.90;99.90
52513;DHT22;38422;53.172;6.974;2023-09-18T11:20:24;21.90;99.90
52513;DHT22;38422;53.172;6.974;2023-09-18T11:22:59;21.90;99.90
52513;DHT22;38422;53.172;6.974;2023-09-18T11:28:16;21.90;99.90
52513;DHT22;38422;53.172;6.974;2023-09-18T11:30:55;22.20;99.90
52513;DHT22;38422;53.172;6.974;2023-09-18T11:33:42;22.40;99.90
52513;DHT22;38422;53.172;6.974;2023-09-18T11:38:58;22.20;99.90
52513;DHT22;38422;53.172;6.974;2023-09-18T11:41:33;22.40;99.90
52513;DHT22;38422;53.172;6.974;2023-09-18T11:46:51;22.70;99.90
52513;DHT22;38422;53.172;6.974;2023-09-18T11:49:21;22.70;99.90
52513;DHT22;38422;53.172;6.974;2023-09-18T11:51:48;22.70;99.90
52513;DHT22;38422;53.172;6.974;2023-09-18T11:54:14;22.60;99.90
52513;DHT22;38422;53.172;6.974;2023-09-18T11:56:41;22.50;99.90
52513;DHT22;38422;53.172;6.974;2023-09-18T11:59:07;22.60;99.90
52513;DHT22;38422;53.172;6.974;2023-09-18T12:01:34;22.90;99.90
52513;DHT22;38422;53.172;6.974;2023-09-18T12:04:05;23.20;99.90
52513;DHT22;38422;53.172;6.974;2023-09-18T12:06:41;23.50;99.90
52513;DHT22;38422;53.172;6.974;2023-09-18T12:09:08;23.90;99.90
52513;DHT22;38422;53.172;6.974;2023-09-18T12:11:34;24.10;99.90
52513;DHT22;38422;53.172;6.974;2023-09-18T12:14:01;24.40;99.90
52513;DHT22;38422;53.172;6.974;2023-09-18T12:16:31;24.50;99.90
52513;DHT22;38422;53.172;6.974;2023-09-18T12:19:03;24.70;99.90
52513;DHT22;38422;53.172;6.974;2023-09-18T12:21:31;24.60;99.90
52513;DHT22;38422;53.172;6.974;2023-09-18T12:23:57;24.30;99.90
52513;DHT22;38422;53.172;6.974;2023-09-18T12:26:23;24.20;99.90
52513;DHT22;38422;53.172;6.974;2023-09-18T12:28:51;24.00;99.90
52513;DHT22;38422;53.172;6.974;2023-09-18T12:31:17;23.80;99.90
52513;DHT22;38422;53.172;6.974;2023-09-18T12:33:43;23.50;99.90
52513;DHT22;38422;53.172;6.974;2023-09-18T12:36:10;23.20;99.90
52513;DHT22;38422;53.172;6.974;2023-09-18T12:38:37;22.90;99.90
52513;DHT22;38422;53.172;6.974;2023-09-18T12:41:04;22.60;99.90
52513;DHT22;38422;53.172;6.974;2023-09-18T12:43:40;22.30;99.90
52513;DHT22;38422;53.172;6.974;2023-09-18T12:46:08;21.80;99.90
52513;DHT22;38422;53.172;6.974;2023-09-18T12:48:38;21.60;99.90
52513;DHT22;38422;53.172;6.974;2023-09-18T12:51:05;21.60;99.90
52513;DHT22;38422;53.172;6.974;2023-09-18T12:53:31;21.90;99.90
52513;DHT22;38422;53.172;6.974;2023-09-18T12:56:13;22.30;99.90
52513;DHT22;38422;53.172;6.974;2023-09-18T12:58:40;22.70;99.90
52513;DHT22;38422;53.172;6.974;2023-09-18T13:01:06;23.00;99.90
52513;DHT22;38422;53.172;6.974;2023-09-18T13:03:42;23.30;99.90
52513;DHT22;38422;53.172;6.974;2023-09-18T13:06:15;23.50;99.90
52513;DHT22;38422;53.172;6.974;2023-09-18T13:08:43;23.80;99.90
52513;DHT22;38422;53.172;6.974;2023-09-18T13:11:09;23.90;99.90
52513;DHT22;38422;53.172;6.974;2023-09-18T13:13:36;23.80;99.90
52513;DHT22;38422;53.172;6.974;2023-09-18T13:16:05;23.90;99.90
52513;DHT22;38422;53.172;6.974;2023-09-18T13:18:31;24.00;99.90
52513;DHT22;38422;53.172;6.974;2023-09-18T13:20:57;24.10;99.90
52513;DHT22;38422;53.172;6.974;2023-09-18T13:23:30;24.10;99.90
52513;DHT22;38422;53.172;6.974;2023-09-18T13:26:04;24.00;99.90
52513;DHT22;38422;53.172;6.974;2023-09-18T13:28:30;23.80;99.90
52513;DHT22;38422;53.172;6.974;2023-09-18T13:31:05;23.60;99.90
52513;DHT22;38422;53.172;6.974;2023-09-18T13:33:33;23.50;99.90
52513;DHT22;38422;53.172;6.974;2023-09-18T13:35:59;23.50;99.90
52513;DHT22;38422;53.172;6.974;2023-09-18T13:38:25;23.60;99.90
52513;DHT22;38422;53.172;6.974;2023-09-18T13:40:51;23.50;99.90
52513;DHT22;38422;53.172;6.974;2023-09-18T13:43:19;23.40;99.90
52513;DHT22;38422;53.172;6.974;2023-09-18T13:45:48;23.40;99.90
52513;DHT22;38422;53.172;6.974;2023-09-18T13:48:17;23.50;99.90
52513;DHT22;38422;53.172;6.974;2023-09-18T13:50:43;23.60;99.90
52513;DHT22;38422;53.172;6.974;2023-09-18T13:53:08;23.80;99.90
52513;DHT22;38422;53.172;6.974;2023-09-18T13:55:35;24.00;99.90
52513;DHT22;38422;53.172;6.974;2023-09-18T13:58:01;24.30;99.90
52513;DHT22;38422;53.172;6.974;2023-09-18T14:00:30;24.50;99.90
52513;DHT22;38422;53.172;6.974;2023-09-18T14:02:56;24.80;99.90
52513;DHT22;38422;53.172;6.974;2023-09-18T14:05:22;25.00;99.90
52513;DHT22;38422;53.172;6.974;2023-09-18T14:07:48;25.10;99.90
52513;DHT22;38422;53.172;6.974;2023-09-18T14:10:14;25.10;99.90
52513;DHT22;38422;53.172;6.974;2023-09-18T14:12:41;25.20;99.90
52513;DHT22;38422;53.172;6.974;2023-09-18T14:15:08;25.30;99.90
52513;DHT22;38422;53.172;6.974;2023-09-18T14:17:35;25.40;99.90
52513;DHT22;38422;53.172;6.974;2023-09-18T14:20:01;25.40;99.90
52513;DHT22;38422;53.172;6.974;2023-09-18T14:22:32;25.40;99.90
52513;DHT22;38422;53.172;6.974;2023-09-18T14:24:58;25.50;99.90
52513;DHT22;38422;53.172;6.974;2023-09-18T14:27:24;25.40;99.90
52513;DHT22;38422;53.172;6.974;2023-09-18T14:29:49;25.40;99.90
52513;DHT22;38422;53.172;6.974;2023-09-18T14:32:15;25.40;99.90
52513;DHT22;38422;53.172;6.974;2023-09-18T14:34:41;25.10;99.90
52513;DHT22;38422;53.172;6.974;2023-09-18T14:37:07;24.80;99.90
52513;DHT22;38422;53.172;6.974;2023-09-18T14:39:34;24.50;99.90
52513;DHT22;38422;53.172;6.974;2023-09-18T14:41:59;24.40;99.90
52513;DHT22;38422;53.172;6.974;2023-09-18T14:44:26;24.30;99.90
52513;DHT22;38422;53.172;6.974;2023-09-18T14:46:56;24.30;99.90
52513;DHT22;38422;53.172;6.974;2023-09-18T14:49:21;24.40;99.90
52513;DHT22;38422;53.172;6.974;2023-09-18T14:51:47;24.60;99.90
52513;DHT22;38422;53.172;6.974;2023-09-18T14:54:15;24.80;99.90
52513;DHT22;38422;53.172;6.974;2023-09-18T14:56:40;25.00;99.90
52513;DHT22;38422;53.172;6.974;2023-09-18T14:59:06;25.10;99.90
52513;DHT22;38422;53.172;6.974;2023-09-18T15:01:33;25.00;99.90
52513;DHT22;38422;53.172;6.974;2023-09-18T15:03:59;24.80;99.90
52513;DHT22;38422;53.172;6.974;2023-09-18T15:06:25;24.80;99.90
52513;DHT22;38422;53.172;6.974;2023-09-18T15:08:51;24.70;99.90
52513;DHT22;38422;53.172;6.974;2023-09-18T15:11:17;24.40;99.90
52513;DHT22;38422;53.172;6.974;2023-09-18T15:13:44;24.20;99.90
52513;DHT22;38422;53.172;6.974;2023-09-18T15:16:09;24.00;99.90
52513;DHT22;38422;53.172;6.974;2023-09-18T15:18:35;23.80;99.90
52513;DHT22;38422;53.172;6.974;2023-09-18T15:21:02;23.80;99.90
52513;DHT22;38422;53.172;6.974;2023-09-18T15:23:28;23.80;99.90
52513;DHT22;38422;53.172;6.974;2023-09-18T15:25:55;23.80;99.90
52513;DHT22;38422;53.172;6.974;2023-09-18T15:28:24;23.90;99.90
52513;DHT22;38422;53.172;6.974;2023-09-18T15:30:52;24.00;99.90
52513;DHT22;38422;53.172;6.974;2023-09-18T15:33:18;24.00;99.90
52513;DHT22;38422;53.172;6.974;2023-09-18T15:35:47;24.00;99.90
52513;DHT22;38422;53.172;6.974;2023-09-18T15:38:12;24.00;99.90
52513;DHT22;38422;53.172;6.974;2023-09-18T15:40:38;23.90;99.90
52513;DHT22;38422;53.172;6.974;2023-09-18T15:43:04;23.90;99.90
52513;DHT22;38422;53.172;6.974;2023-09-18T15:45:31;23.80;99.90
52513;DHT22;38422;53.172;6.974;2023-09-18T15:47:57;23.70;99.90
52513;DHT22;38422;53.172;6.974;2023-09-18T15:50:23;23.60;99.90
52513;DHT22;38422;53.172;6.974;2023-09-18T15:52:49;23.50;99.90
52513;DHT22;38422;53.172;6.974;2023-09-18T15:55:15;23.40;99.90
52513;DHT22;38422;53.172;6.974;2023-09-18T15:57:41;23.30;99.90
52513;DHT22;38422;53.172;6.974;2023-09-18T16:00:11;23.30;99.90
52513;DHT22;38422;53.172;6.974;2023-09-18T16:02:37;23.10;99.90
52513;DHT22;38422;53.172;6.974;2023-09-18T16:05:04;23.10;99.90